To NAV CANADA Home Page Login to a new session Search on AWWS site Disclaimer Vers la page française équivalente Tips FAQ What's new on the site To the Forecasts and Observations / NOTAM section To "File a Flight Plan" website Publications and other links Update of the User's profile FIC Telephone Numbers My Weather Data Folder Route Weather Data Regional Weather Data Local Weather Data To the Forecasts and Observations / NOTAM section
Request Generated 06/30/2022 at 09:36:56 UTC . Weather information available at that time is displayed.


Go to a specific product

Save this request - Inactive

NOTAM

NOTAM


PIREP
To the Product Selector

FIR_TORONTO (YZ)

YZ - PIREP not available



METAR/TAF
To the Product Selector

WIARTON/ON    

METAR CYVV 300900Z 13005KT 15SM OVC060 12/10 A3017 RMK SC8 SLP220=
METAR CYVV 300800Z 11002KT 15SM OVC150 11/10 A3018 RMK AS8 SLP223=
METAR CYVV 300700Z 11005KT 15SM OVC150 11/10 A3019 RMK AS8 SLP227=

*** REMARK        : Forecast period has ended; this was the last TAF issued
*** REMARQUE : La période de prévision est échue; ceci était le dernier TAF qui a été émis
TAF CYVV 291940Z 2920/2923 27008KT P6SM FEW030
RMK NXT FCST BY 301100Z

KITCHENER/WATERLOO/ON    (show WxCam)

METAR CYKF 300900Z AUTO 00000KT 9SM BKN130 BKN150 OVC180 11/11 A3021 RMK SLP233=
METAR CYKF 300800Z AUTO VRB02KT 9SM BKN060 11/11 A3021 RMK SLP232=
SPECI CYKF 300751Z AUTO 07003KT 360V080 6SM BR SCT060 11/11 A3021 RMK SLP237=
SPECI CYKF 300748Z AUTO 05004KT 360V060 3SM BR BKN060 10/10 A3021 RMK SLP236=
SPECI CYKF 300741Z AUTO 00000KT 2 1/4SM BR SCT060 10/10 A3021 RMK SLP238=
SPECI CYKF 300739Z AUTO 00000KT 2 1/4SM -RA BR SCT060 10/10 A3021 RMK VIS VRB 1 1/2-3 SLP238=
SPECI CYKF 300730Z AUTO 00000KT 3/4SM -RA BR CLR 10/10 A3022 RMK SLP239=
SPECI CYKF 300722Z AUTO 05003KT 1 1/4SM BR CLR 10/10 A3021 RMK SLP238=
SPECI CYKF 300710Z AUTO 00000KT 3/4SM -RA BR CLR 10/10 A3022 RMK VIS VRB 1/4-3 SLP240=
SPECI CYKF 300707Z AUTO 00000KT 1 1/2SM BR CLR 10/10 A3022 RMK VIS VRB 1/2-3 SLP240=
SPECI CYKF 300704Z AUTO 03002KT 2SM BR CLR 10/10 A3022 RMK VIS VRB 1-3 SLP241=
METAR CYKF 300700Z AUTO 36002KT 1SM BR CLR 11/11 A3023 RMK SLP238=

TAF AMD CYKF 300826Z 3008/3020 VRB03KT P6SM SCT060 BKN140 TEMPO
3008/3011 3SM BR BKN060 BKN140
BECMG 3012/3013 14010KT
FM301700 20012G22KT P6SM FEW050 SCT180
RMK FCST BASED ON AUTO OBS. AUTO OBS NON-REPRESENTATIVE OF CRNT
WX. NXT FCST BY 301400Z=

LONDON/ON    

METAR CYXU 300900Z 08005KT 15SM SCT160 SCT250 14/13 A3019 RMK AC3CI1 SLP225=
METAR CYXU 300800Z 14005KT 15SM SCT250 14/14 A3020 RMK CI3 SLP226=
METAR CYXU 300700Z 09005KT 15SM FEW060 SCT250 14/14 A3021 RMK SC1CI2 SC TR SLP232=

TAF CYXU 300542Z 3006/0106 10006KT P6SM SKC TEMPO 3006/3012 2 1/2SM
BR FEW003 PROB30 3007/3011 3/4SM BR BKN003
FM301500 16008KT P6SM FEW060
BECMG 3016/3018 19012G22KT
BECMG 3023/0101 20010KT
RMK NXT FCST BY 301200Z=


RADAR PCPN RATE
To the Product Selector
Ontario      Quebec     

GRAPHICAL FA CLOUDS & WEATHER FORECASTS
To the Product Selector
Graphical FA gfacn33      

GRAPHICAL FA ICING, TURBULENCE & FREEZING LEVEL FORECASTS
To the Product Selector
Graphical FA gfacn33      

FDTEXT Low Level FD. Temperatures are not forecast for the 3,000-foot level.
To the Product Selector
STN YVV - WIARTON. ONT for use 3000 6000 9000 12000 18000
FDCN01 CWAO FCST BASED ON 300000 DATA VALID 300600 05-09 2705 2915+09 2923+07 3030+01 3140-10
FDCN02 CWAO FCST BASED ON 300000 DATA VALID 301200 09-18 2313 2823+12 2926+07 2935+01 3036-09
FDCN03 CWAO FCST BASED ON 300000 DATA VALID 010000 18-05 2236 2432+15 2433+09 2536+04 2753-08



Your time UTC time
Weather data provided by Environment Canada and NAV CANADA